Airfield :
LOGIN :

Register | Disclaimer

   EN    FR    IT 

 










Legend :    VFR   Marginal VFR   IFR   Intensive IFR   Very Intensive IFR
Visi :
Ceiling :
>= 8 km
>= 3000ft
5 to 8 km
1000 to 3000 ft
1500m to 5 km
500 to 1000 ft
800 to 1500m
200 to 500 ft
< 800m
< 200 ft
Symbols :   Thunderstorms  Fog  Heavy snow  Heavy precipitations  Wind > 20 kt
SIGMETs :     Misc.  Thunderstorms  Icing  Turbulence  Mountain Waves  Volcanic Ashes






- Airport Elevation : 587 ft
- IATA code : XCR


LFOK - Chalons Vatry

CURRENT METAR :
  • 271600Z AUTO 31030G42KT 9999 BKN022 OVC027 05/02 Q1002 BECMG 30020G30KT

EXPIRED METARs :
  • 271530Z AUTO 31031G41KT 9999 BKN023 OVC028 05/02 Q1000 BECMG 30020G30KT
  • 271500Z AUTO 31033G47KT 9999 BKN023 BKN031 05/02 Q0998 BECMG 30020G30KT
  • 271430Z AUTO 31040KT 9999 2000 FEW011 BKN021 BKN028 06/03 Q0995 BECMG 30020G30KT
  • 271400Z AUTO 26028G40KT 6000 2800 -RA BKN013 BKN021 BKN026 10/09 Q0991 TEMPO 30030G50KT BECMG BKN025

TAF TAF LFOK
Valid from the 27 at 12:00 until the 28 at 12:00 UTC


271100Z 2712/2812 18025G35KT 9999 RA OVC007
BECMG 2712/2714 30025G40KT NSW BKN025
PROB40
TEMPO 2714/2716 30030G50KT
BECMG 2716/2718 30020G30KT
BECMG 2718/2721 27012KT
BECMG 2804/2806 17010KT



MET'MAP, your aeronautical weather chart ! - Copyright ORBIFLY December 2007 - Disclaimer

ORBIFLY MET'MAP TEAM :

Programming & Development : Alexandra Zaïnal
Concept & original design : Baudouin d'Aumeries
Assistance for programming : Marc-Olivier Méhu
Technical & hardware support : Manuel Goepfert

Contact : metmap@orbifly.com




SOURCES & CREDITS :

   NOAA